Time;durP1;ratioP1;P1;durP2;ratioP2;P2;SDS_P1;SDS_P2;PMS_P1;PMS_P2;Temp;Humidity;BMP_temperature;BMP_pressure;BME280_temperature;BME280_humidity;BME280_pressure;Samples;Min_cycle;Max_cycle;Signal;HPM_P1;HPM_P2
2022/05/28 00:01:11;;;;;;;7.78;3.97;;;14.20;69.40;;;;;;5093101;28;20090;-82
2022/05/28 00:03:38;;;;;;;11.18;3.97;;;14.20;69.40;;;;;;5091871;28;20067;-83
2022/05/28 00:06:14;;;;;;;11.63;4.20;;;14.20;69.50;;;;;;5089456;28;20044;-83
2022/05/28 00:08:41;;;;;;;12.90;4.40;;;14.20;69.60;;;;;;5091911;28;20114;-83
2022/05/28 00:11:19;;;;;;;12.82;4.00;;;14.10;69.60;;;;;;5091476;28;20037;-83
2022/05/28 00:13:47;;;;;;;10.45;4.03;;;14.10;69.70;;;;;;5092534;28;20044;-83
2022/05/28 00:16:15;;;;;;;10.80;3.88;;;14.00;69.70;;;;;;5093634;28;20048;-83
2022/05/28 00:18:43;;;;;;;11.38;4.47;;;14.10;69.70;;;;;;5091701;28;20398;-83
2022/05/28 00:21:12;;;;;;;10.95;4.60;;;14.00;69.70;;;;;;5091533;28;20047;-83
2022/05/28 00:23:39;;;;;;;11.82;4.32;;;14.00;69.80;;;;;;5090302;28;20502;-82
2022/05/28 00:26:07;;;;;;;8.25;3.67;;;13.90;69.80;;;;;;5091227;28;20105;-83
2022/05/28 00:28:34;;;;;;;11.18;4.45;;;13.90;69.90;;;;;;5093653;28;20044;-82
2022/05/28 00:31:01;;;;;;;10.27;4.53;;;13.90;70.00;;;;;;5089196;28;20109;-82
2022/05/28 00:33:30;;;;;;;10.90;3.85;;;13.90;70.00;;;;;;5091152;28;20127;-83
2022/05/28 00:35:58;;;;;;;11.48;4.43;;;13.90;70.10;;;;;;5091296;28;20047;-83
2022/05/28 00:38:25;;;;;;;11.63;4.25;;;13.80;70.10;;;;;;5091293;28;20070;-82
2022/05/28 00:40:56;;;;;;;8.50;4.05;;;13.80;70.10;;;;;;5090969;28;20051;-83
2022/05/28 00:43:24;;;;;;;11.57;4.50;;;13.80;70.20;;;;;;5093235;28;20040;-83
2022/05/28 00:45:59;;;;;;;13.15;4.32;;;13.70;70.20;;;;;;5089546;28;20555;-83
2022/05/28 00:48:30;;;;;;;9.40;4.20;;;13.70;70.30;;;;;;5091191;28;20043;-83
2022/05/28 00:51:04;;;;;;;12.35;5.03;;;13.70;70.30;;;;;;5091109;28;20169;-83
2022/05/28 00:53:32;;;;;;;9.25;4.20;;;13.70;70.40;;;;;;5090785;28;20060;-83
2022/05/28 00:56:04;;;;;;;11.63;4.38;;;13.60;70.50;;;;;;5091059;28;20048;-82
2022/05/28 00:58:32;;;;;;;11.68;4.57;;;13.60;70.60;;;;;;5088733;28;20094;-83
2022/05/28 01:01:00;;;;;;;11.75;4.82;;;13.60;70.60;;;;;;5091095;28;20581;-83
2022/05/28 01:03:36;;;;;;;10.48;4.65;;;13.60;70.70;;;;;;5090694;28;20044;-83
2022/05/28 01:06:29;;;;;;;12.38;5.05;;;13.50;70.80;;;;;;5090686;28;20131;-82
2022/05/28 01:09:16;;;;;;;13.05;4.85;;;13.50;70.90;;;;;;5090300;28;20117;-83
2022/05/28 01:11:51;;;;;;;13.75;5.20;;;13.50;71.10;;;;;;5090812;28;20106;-83
2022/05/28 01:14:29;;;;;;;14.70;5.25;;;13.50;71.20;;;;;;5090684;28;20472;-82
2022/05/28 01:17:00;;;;;;;11.40;4.97;;;13.50;71.40;;;;;;5090656;28;20522;-82
2022/05/28 01:19:43;;;;;;;13.60;5.50;;;13.50;71.50;;;;;;5091753;28;20485;-84
2022/05/28 01:22:22;;;;;;;14.73;5.80;;;13.50;71.60;;;;;;5091396;28;20048;-82
2022/05/28 01:24:56;;;;;;;13.82;4.85;;;13.50;71.80;;;;;;5087966;28;20055;-82
2022/05/28 01:27:39;;;;;;;13.13;5.55;;;13.50;71.90;;;;;;5089219;28;20097;-82
2022/05/28 01:30:08;;;;;;;14.48;6.35;;;13.50;72.00;;;;;;5090521;28;20044;-82
2022/05/28 01:32:36;;;;;;;14.57;5.75;;;13.50;72.10;;;;;;5090352;28;20051;-82
2022/05/28 01:35:07;;;;;;;15.23;5.63;;;13.50;72.10;;;;;;5071884;28;20048;-84
2022/05/28 01:37:36;;;;;;;13.43;5.95;;;13.50;72.20;;;;;;5088436;28;20040;-84
2022/05/28 01:40:07;;;;;;;13.77;6.18;;;13.50;72.30;;;;;;5089393;28;20047;-84
2022/05/28 01:42:38;;;;;;;12.95;5.75;;;13.50;72.40;;;;;;5090290;28;20044;-83
2022/05/28 01:45:07;;;;;;;13.18;5.88;;;13.50;72.50;;;;;;5090006;28;20044;-84
2022/05/28 01:47:35;;;;;;;16.60;6.72;;;13.50;72.60;;;;;;5090355;28;20415;-84
2022/05/28 01:50:07;;;;;;;13.32;5.35;;;13.50;72.60;;;;;;5074462;28;20067;-83
2022/05/28 01:52:34;;;;;;;12.77;6.00;;;13.50;72.70;;;;;;5088034;28;20052;-84
2022/05/28 01:55:02;;;;;;;14.18;5.95;;;13.50;72.80;;;;;;5090820;28;20093;-84
2022/05/28 01:57:29;;;;;;;13.70;5.97;;;13.50;72.80;;;;;;5090090;28;20052;-84
2022/05/28 01:59:56;;;;;;;11.88;5.70;;;13.50;72.90;;;;;;5090063;28;20044;-84
2022/05/28 02:02:23;;;;;;;14.00;5.63;;;13.50;73.00;;;;;;5088910;28;20071;-83
2022/05/28 02:04:50;;;;;;;11.05;5.47;;;13.50;73.00;;;;;;5088732;28;20043;-83
2022/05/28 02:07:19;;;;;;;17.35;6.78;;;13.50;73.10;;;;;;5091948;28;20044;-83
2022/05/28 02:09:52;;;;;;;14.15;6.30;;;13.50;73.10;;;;;;5090102;28;20044;-83
2022/05/28 02:12:18;;;;;;;13.57;6.90;;;13.50;73.20;;;;;;5090065;28;20101;-83
2022/05/28 02:15:03;;;;;;;14.07;6.13;;;13.40;73.20;;;;;;5088653;28;20347;-83
2022/05/28 02:17:47;;;;;;;15.50;6.32;;;13.50;73.30;;;;;;5090048;28;20052;-83
2022/05/28 02:20:24;;;;;;;14.63;6.57;;;13.40;73.30;;;;;;5075171;28;20040;-83
2022/05/28 02:23:33;;;;;;;15.75;6.68;;;13.40;73.40;;;;;;5075125;28;20082;-82
2022/05/28 02:26:11;;;;;;;15.55;6.45;;;13.40;73.40;;;;;;5089852;28;20039;-82
2022/05/28 02:28:41;;;;;;;18.20;6.28;;;13.40;73.40;;;;;;5086835;28;20117;-82
2022/05/28 02:31:27;;;;;;;15.77;6.57;;;13.40;73.50;;;;;;5090855;28;20093;-84
2022/05/28 02:33:54;;;;;;;13.10;6.35;;;13.40;73.50;;;;;;5089742;28;20041;-83
2022/05/28 02:36:23;;;;;;;14.43;6.60;;;13.40;73.50;;;;;;5092970;28;20459;-83
2022/05/28 02:38:50;;;;;;;15.82;7.03;;;13.40;73.50;;;;;;5093618;28;20113;-83
2022/05/28 02:41:18;;;;;;;15.30;6.30;;;13.40;73.50;;;;;;5092233;28;20399;-83
2022/05/28 02:43:45;;;;;;;14.77;7.32;;;13.40;73.50;;;;;;5094386;28;20164;-83
2022/05/28 02:46:13;;;;;;;16.05;7.00;;;13.40;73.60;;;;;;5095137;28;20109;-83
2022/05/28 02:48:40;;;;;;;13.30;6.78;;;13.30;73.60;;;;;;5093409;28;20478;-82
2022/05/28 02:51:18;;;;;;;15.32;6.97;;;13.30;73.60;;;;;;5092948;28;20044;-82
2022/05/28 02:53:47;;;;;;;14.35;6.90;;;13.30;73.60;;;;;;5093167;28;20455;-83
2022/05/28 02:56:14;;;;;;;13.05;6.65;;;13.30;73.60;;;;;;5093379;28;20043;-82
2022/05/28 02:58:42;;;;;;;15.10;6.95;;;13.30;73.60;;;;;;5094653;28;20131;-82
2022/05/28 03:01:22;;;;;;;18.13;6.72;;;13.30;73.60;;;;;;5094412;28;20109;-82
2022/05/28 03:03:50;;;;;;;14.30;6.60;;;13.30;73.60;;;;;;5091554;28;20052;-82
2022/05/28 03:06:16;;;;;;;13.32;6.68;;;13.20;73.60;;;;;;5093033;28;20086;-82
2022/05/28 03:08:44;;;;;;;14.15;6.70;;;13.20;73.50;;;;;;5093026;28;20582;-84
2022/05/28 03:11:11;;;;;;;12.70;5.80;;;13.20;73.50;;;;;;5093107;28;20105;-82
2022/05/28 03:13:38;;;;;;;13.90;6.07;;;13.20;73.50;;;;;;5094431;28;20383;-84
2022/05/28 03:16:05;;;;;;;14.05;6.20;;;13.20;73.50;;;;;;5092265;28;20048;-83
2022/05/28 03:18:32;;;;;;;13.27;6.20;;;13.10;73.40;;;;;;5092574;28;20112;-83
2022/05/28 03:20:59;;;;;;;14.60;5.95;;;13.10;73.40;;;;;;5091396;28;20467;-83
2022/05/28 03:23:26;;;;;;;12.88;5.70;;;13.00;73.40;;;;;;5092839;28;20121;-83
2022/05/28 03:25:53;;;;;;;12.18;5.55;;;13.00;73.30;;;;;;5092806;28;20105;-84
2022/05/28 03:28:20;;;;;;;12.75;6.10;;;13.00;73.30;;;;;;5094674;28;20471;-83
2022/05/28 03:30:47;;;;;;;11.10;5.88;;;13.00;73.40;;;;;;5092586;28;20052;-83
2022/05/28 03:33:15;;;;;;;13.45;5.35;;;12.90;73.30;;;;;;5092133;28;20040;-82
2022/05/28 03:35:41;;;;;;;12.45;4.90;;;12.90;73.30;;;;;;5092531;28;20634;-82
2022/05/28 03:38:08;;;;;;;10.30;5.20;;;12.90;73.30;;;;;;5092688;28;20502;-82
2022/05/28 03:40:35;;;;;;;10.57;4.68;;;12.90;73.20;;;;;;5094369;28;20102;-82
2022/05/28 03:43:03;;;;;;;10.40;4.95;;;12.90;73.20;;;;;;5093098;28;20082;-82
2022/05/28 03:45:29;;;;;;;12.55;4.57;;;12.80;73.20;;;;;;5091688;28;20056;-82
2022/05/28 03:47:56;;;;;;;10.68;4.75;;;12.80;73.20;;;;;;5091898;28;20456;-82
2022/05/28 03:50:23;;;;;;;11.60;5.05;;;12.80;73.10;;;;;;5092491;28;20051;-82
2022/05/28 03:52:50;;;;;;;11.18;4.47;;;12.70;73.10;;;;;;5092121;28;20040;-82
2022/05/28 03:55:17;;;;;;;8.65;4.45;;;12.70;73.10;;;;;;5094275;28;20044;-82
2022/05/28 03:57:46;;;;;;;8.55;4.47;;;12.70;73.00;;;;;;5092110;28;20048;-82
2022/05/28 04:00:14;;;;;;;12.35;4.50;;;12.70;73.00;;;;;;5090608;28;20054;-82
2022/05/28 04:02:41;;;;;;;11.13;4.50;;;12.60;73.00;;;;;;5091456;28;20456;-82
2022/05/28 04:05:09;;;;;;;11.05;4.82;;;12.60;72.90;;;;;;5091844;28;20617;-83
2022/05/28 04:07:37;;;;;;;13.60;4.30;;;12.50;72.90;;;;;;5093791;28;20051;-82
2022/05/28 04:10:05;;;;;;;8.95;4.22;;;12.60;72.90;;;;;;5089922;28;20463;-82
2022/05/28 04:12:32;;;;;;;10.38;4.05;;;12.50;72.90;;;;;;5091825;28;20093;-82
2022/05/28 04:14:59;;;;;;;10.00;4.32;;;12.50;72.90;;;;;;5119962;27;20089;-83
2022/05/28 04:17:26;;;;;;;10.95;4.25;;;12.50;72.90;;;;;;5091481;28;20052;-82
2022/05/28 04:19:53;;;;;;;11.30;4.22;;;12.40;72.90;;;;;;5091716;28;20055;-82
2022/05/28 04:22:20;;;;;;;9.57;3.63;;;12.40;72.90;;;;;;5093671;28;20040;-82
2022/05/28 04:24:47;;;;;;;11.52;4.10;;;12.40;72.90;;;;;;5091380;28;20056;-82
2022/05/28 04:27:13;;;;;;;9.40;4.03;;;12.40;72.90;;;;;;5091331;28;20066;-82
2022/05/28 04:29:40;;;;;;;10.55;4.20;;;12.40;72.90;;;;;;5091379;28;20476;-82
2022/05/28 04:32:08;;;;;;;10.18;4.13;;;12.30;72.90;;;;;;5091314;28;20103;-82
2022/05/28 04:34:35;;;;;;;8.68;3.90;;;12.30;72.90;;;;;;5093517;28;20105;-82
2022/05/28 04:37:01;;;;;;;12.07;3.92;;;12.30;72.90;;;;;;5089119;28;20044;-82
2022/05/28 04:39:28;;;;;;;9.90;3.90;;;12.30;72.90;;;;;;5088803;28;20043;-82
2022/05/28 04:41:55;;;;;;;12.73;3.97;;;12.20;72.90;;;;;;5091330;28;20044;-82
2022/05/28 04:44:22;;;;;;;11.85;4.20;;;12.20;72.90;;;;;;5091207;28;20048;-82
2022/05/28 04:46:49;;;;;;;11.85;4.38;;;12.20;73.00;;;;;;5091007;28;20105;-82
2022/05/28 04:49:16;;;;;;;13.48;4.50;;;12.20;73.00;;;;;;5091089;28;20052;-82
2022/05/28 04:51:43;;;;;;;24.60;4.43;;;12.20;73.10;;;;;;5091096;28;20047;-82
2022/05/28 04:54:10;;;;;;;16.02;3.75;;;12.20;73.10;;;;;;5091025;28;20102;-82
2022/05/28 04:56:37;;;;;;;9.38;3.83;;;12.20;73.10;;;;;;5089764;28;20101;-82
2022/05/28 04:59:04;;;;;;;10.07;3.80;;;12.20;73.20;;;;;;5073447;28;20117;-82
2022/05/28 05:01:31;;;;;;;9.82;3.80;;;12.10;73.20;;;;;;5087231;28;20101;-82
2022/05/28 05:03:58;;;;;;;10.55;3.78;;;12.10;73.30;;;;;;5090733;28;20048;-82
2022/05/28 05:06:26;;;;;;;11.07;3.17;;;12.10;73.30;;;;;;5090685;28;20043;-82
2022/05/28 05:08:52;;;;;;;11.30;3.38;;;12.20;73.40;;;;;;5090786;28;20043;-82
2022/05/28 05:11:19;;;;;;;9.90;4.03;;;12.20;73.40;;;;;;5090760;28;20052;-82
2022/05/28 05:13:46;;;;;;;10.65;3.28;;;12.20;73.40;;;;;;5091406;28;20052;-84
2022/05/28 05:16:15;;;;;;;11.25;3.20;;;12.20;73.50;;;;;;5091954;28;20052;-84
2022/05/28 05:18:43;;;;;;;9.00;3.47;;;12.20;73.50;;;;;;5089202;28;20090;-82
2022/05/28 05:21:13;;;;;;;10.27;3.78;;;12.20;73.60;;;;;;5090397;28;20574;-82
2022/05/28 05:23:41;;;;;;;14.30;3.50;;;12.20;73.60;;;;;;5079177;28;20048;-82
2022/05/28 05:26:13;;;;;;;12.30;3.40;;;12.20;73.70;;;;;;5078036;28;20782;-82
2022/05/28 05:28:41;;;;;;;9.65;3.00;;;12.20;73.70;;;;;;5086583;28;20051;-82
2022/05/28 05:31:11;;;;;;;12.10;3.38;;;12.20;73.70;;;;;;5089228;28;20069;-83
2022/05/28 05:33:38;;;;;;;10.57;3.30;;;12.20;73.70;;;;;;5079441;28;20098;-82
2022/05/28 05:36:05;;;;;;;9.05;2.78;;;12.30;73.80;;;;;;5076461;28;20125;-82
2022/05/28 05:38:32;;;;;;;10.00;3.28;;;12.30;73.80;;;;;;5075632;28;20109;-82
2022/05/28 05:40:59;;;;;;;7.10;2.70;;;12.30;73.90;;;;;;5072761;28;20044;-82
2022/05/28 05:43:26;;;;;;;8.88;2.95;;;12.30;73.90;;;;;;5075854;28;20045;-82
2022/05/28 05:45:55;;;;;;;7.72;2.80;;;12.30;73.90;;;;;;5075847;28;20059;-82
2022/05/28 05:48:23;;;;;;;9.27;3.00;;;12.40;74.00;;;;;;5076305;28;20053;-82
2022/05/28 05:50:51;;;;;;;8.45;3.05;;;12.40;74.10;;;;;;5076165;28;20048;-82
2022/05/28 05:53:18;;;;;;;9.18;3.00;;;12.40;74.10;;;;;;5073302;28;20094;-82
2022/05/28 05:55:44;;;;;;;10.95;3.10;;;12.40;74.20;;;;;;5073972;28;20060;-82
2022/05/28 05:58:12;;;;;;;8.57;2.70;;;12.40;74.20;;;;;;5076186;28;20045;-83
2022/05/28 06:00:39;;;;;;;9.38;2.92;;;12.40;74.20;;;;;;5076001;28;20102;-82
2022/05/28 06:03:07;;;;;;;8.73;2.78;;;12.50;74.30;;;;;;5074849;28;20044;-82
2022/05/28 06:05:33;;;;;;;11.15;3.10;;;12.50;74.30;;;;;;5077422;28;20048;-82
2022/05/28 06:08:00;;;;;;;9.25;2.90;;;12.60;74.40;;;;;;5072188;28;20102;-82
2022/05/28 06:10:27;;;;;;;7.68;2.80;;;12.50;74.40;;;;;;5080166;28;20395;-82
2022/05/28 06:12:54;;;;;;;9.73;2.55;;;12.60;74.40;;;;;;5079759;28;20041;-83
2022/05/28 06:15:21;;;;;;;7.47;2.42;;;12.60;74.40;;;;;;5079926;28;20460;-83
2022/05/28 06:17:48;;;;;;;8.73;2.60;;;12.70;74.40;;;;;;5080073;28;20497;-84
2022/05/28 06:20:15;;;;;;;7.30;2.65;;;12.70;74.50;;;;;;5075730;28;20544;-83
2022/05/28 06:22:42;;;;;;;11.23;2.50;;;12.70;74.50;;;;;;5077711;28;20045;-83
2022/05/28 06:25:09;;;;;;;9.68;2.45;;;12.70;74.50;;;;;;5079428;28;20556;-83
2022/05/28 06:27:36;;;;;;;7.20;2.40;;;12.80;74.50;;;;;;5079737;28;20056;-83
2022/05/28 06:30:04;;;;;;;6.68;2.25;;;12.80;74.60;;;;;;5079610;28;20413;-82
2022/05/28 06:32:31;;;;;;;8.25;2.88;;;12.90;74.60;;;;;;5078726;28;20117;-82
2022/05/28 06:34:58;;;;;;;9.80;2.92;;;12.90;74.60;;;;;;5076063;28;20097;-82
2022/05/28 06:37:25;;;;;;;9.35;2.85;;;12.90;74.60;;;;;;5079696;28;20044;-84
2022/05/28 06:39:52;;;;;;;9.48;2.53;;;13.00;74.60;;;;;;5079662;28;20118;-83
2022/05/28 06:42:19;;;;;;;9.50;2.72;;;13.00;74.50;;;;;;5079446;28;20040;-83
2022/05/28 06:44:45;;;;;;;8.63;2.50;;;13.00;74.40;;;;;;5079396;28;20052;-83
2022/05/28 06:47:12;;;;;;;8.93;2.40;;;13.10;74.40;;;;;;5076019;28;20098;-83
2022/05/28 06:49:39;;;;;;;8.65;2.40;;;13.20;74.40;;;;;;5077809;28;20098;-83
2022/05/28 06:52:06;;;;;;;7.85;2.78;;;13.20;74.30;;;;;;5088969;28;20475;-83
2022/05/28 06:54:33;;;;;;;9.73;2.63;;;13.20;74.30;;;;;;5082901;28;20052;-83
2022/05/28 06:57:00;;;;;;;7.93;2.40;;;13.30;74.30;;;;;;5078983;28;20044;-82
2022/05/28 06:59:27;;;;;;;6.85;1.73;;;13.30;74.20;;;;;;5077780;28;20517;-82
2022/05/28 07:01:56;;;;;;;8.00;2.10;;;13.30;74.20;;;;;;5076364;28;20106;-83
2022/05/28 07:04:23;;;;;;;8.32;2.42;;;13.40;74.20;;;;;;5079209;28;20147;-83
2022/05/28 07:06:50;;;;;;;10.30;2.47;;;13.40;74.10;;;;;;5078735;28;20060;-83
2022/05/28 07:09:17;;;;;;;10.57;2.40;;;13.40;74.10;;;;;;5079235;28;20041;-83
2022/05/28 07:11:44;;;;;;;7.95;2.08;;;13.50;74.10;;;;;;5079049;28;20052;-83
2022/05/28 07:14:11;;;;;;;6.00;1.83;;;13.50;74.00;;;;;;5076546;28;20077;-83
2022/05/28 07:16:37;;;;;;;6.95;2.20;;;13.50;74.00;;;;;;5090537;28;20055;-83
2022/05/28 07:19:10;;;;;;;6.97;1.90;;;13.50;73.90;;;;;;5089315;28;20445;-83
2022/05/28 07:21:37;;;;;;;8.90;2.35;;;13.60;73.90;;;;;;5081567;28;20464;-83
2022/05/28 07:24:04;;;;;;;8.35;2.20;;;13.60;73.80;;;;;;5079513;28;20069;-83
2022/05/28 07:26:31;;;;;;;9.75;2.20;;;13.60;73.80;;;;;;5090286;28;20044;-83
2022/05/28 07:28:58;;;;;;;7.35;2.30;;;13.70;73.80;;;;;;5075264;28;20460;-82
2022/05/28 07:31:24;;;;;;;8.05;2.33;;;13.70;73.80;;;;;;5078847;28;20044;-83
2022/05/28 07:33:51;;;;;;;8.85;2.30;;;13.80;73.80;;;;;;5078771;28;20094;-83
2022/05/28 07:36:21;;;;;;;7.90;2.47;;;13.80;73.70;;;;;;5081762;28;20105;-83
2022/05/28 07:38:49;;;;;;;7.65;2.25;;;13.90;73.70;;;;;;5088931;28;20098;-84
2022/05/28 07:41:19;;;;;;;9.85;2.10;;;13.90;73.70;;;;;;5075140;28;20083;-85
2022/05/28 07:43:48;;;;;;;10.55;2.22;;;13.90;73.60;;;;;;5076185;28;20098;-84
2022/05/28 07:46:18;;;;;;;9.52;2.03;;;14.00;73.60;;;;;;5078098;28;20113;-84
2022/05/28 07:48:46;;;;;;;6.45;1.75;;;14.10;73.50;;;;;;5078331;28;20053;-83
2022/05/28 07:51:13;;;;;;;7.05;2.03;;;14.20;73.40;;;;;;5078319;28;20457;-83
2022/05/28 07:53:41;;;;;;;10.50;2.15;;;14.20;73.30;;;;;;5078227;28;20567;-84
2022/05/28 07:56:09;;;;;;;8.15;2.05;;;14.30;73.20;;;;;;5074307;28;20093;-83
2022/05/28 07:58:38;;;;;;;6.60;1.88;;;14.40;73.10;;;;;;5077097;28;20044;-83
2022/05/28 08:01:06;;;;;;;10.43;2.25;;;14.40;73.00;;;;;;5080085;28;20098;-83
2022/05/28 08:03:34;;;;;;;7.78;1.88;;;14.50;72.80;;;;;;5078412;28;20044;-83
2022/05/28 08:06:01;;;;;;;8.55;2.10;;;14.60;72.70;;;;;;5078201;28;20048;-83
2022/05/28 08:08:28;;;;;;;8.00;2.20;;;14.70;72.50;;;;;;5076395;28;20044;-83
2022/05/28 08:10:55;;;;;;;7.78;2.00;;;14.80;72.30;;;;;;5074823;28;20052;-83
2022/05/28 08:13:24;;;;;;;9.40;1.95;;;14.90;72.20;;;;;;5089135;28;20043;-83
2022/05/28 08:15:53;;;;;;;8.27;1.80;;;14.90;71.90;;;;;;5079128;28;20098;-83
2022/05/28 08:18:25;;;;;;;6.78;1.65;;;15.00;71.70;;;;;;5077867;28;20080;-82
2022/05/28 08:23:51;;;;;;;5.55;1.30;;;15.10;71.30;;;;;;5049317;28;20565;-83
2022/05/28 08:26:19;;;;;;;7.07;1.77;;;15.20;71.00;;;;;;5049790;28;20045;-83
2022/05/28 08:28:48;;;;;;;8.02;1.73;;;15.30;70.80;;;;;;5049927;28;20211;-82
2022/05/28 08:31:16;;;;;;;7.95;1.60;;;15.40;70.60;;;;;;5050218;28;20083;-83
2022/05/28 08:33:44;;;;;;;8.07;1.80;;;15.40;70.30;;;;;;5049444;28;20049;-85
2022/05/28 08:36:11;;;;;;;9.15;2.05;;;15.60;70.00;;;;;;5049590;28;20546;-85
2022/05/28 08:38:39;;;;;;;7.15;1.98;;;15.60;69.80;;;;;;5049348;28;20124;-84
2022/05/28 08:41:17;;;;;;;9.60;2.08;;;15.70;69.60;;;;;;5034070;28;20049;-84
2022/05/28 08:44:21;;;;;;;8.10;1.95;;;15.80;69.20;;;;;;5047162;28;20049;-84
2022/05/28 08:46:55;;;;;;;7.85;1.60;;;15.90;69.00;;;;;;5046913;28;20052;-84
2022/05/28 08:49:27;;;;;;;6.43;1.73;;;15.90;68.70;;;;;;5049373;28;20489;-84
2022/05/28 08:52:11;;;;;;;6.50;1.40;;;16.00;68.50;;;;;;5048976;28;20523;-84
2022/05/28 08:54:56;;;;;;;8.40;1.80;;;16.00;68.40;;;;;;5049160;28;20048;-84
2022/05/28 08:57:30;;;;;;;6.65;1.83;;;16.10;68.20;;;;;;5049200;28;20422;-85
2022/05/28 09:00:01;;;;;;;8.15;1.48;;;16.20;68.00;;;;;;5059109;28;20114;-84
2022/05/28 09:02:43;;;;;;;10.43;1.77;;;16.30;67.80;;;;;;5088268;28;20501;-84
2022/05/28 09:05:28;;;;;;;7.10;1.50;;;16.30;67.50;;;;;;5073074;28;20044;-84
2022/05/28 09:07:59;;;;;;;4.30;1.67;;;16.40;67.30;;;;;;5073312;28;20178;-83
2022/05/28 09:10:41;;;;;;;6.85;1.58;;;16.40;67.10;;;;;;5088190;28;20098;-83
2022/05/28 09:13:24;;;;;;;9.52;1.70;;;16.50;66.80;;;;;;5077580;28;20041;-83
2022/05/28 09:15:52;;;;;;;6.03;1.90;;;16.60;66.50;;;;;;5076710;28;20563;-84
2022/05/28 09:18:20;;;;;;;7.43;1.48;;;16.70;66.20;;;;;;5077121;28;20056;-83
2022/05/28 09:20:48;;;;;;;6.97;1.50;;;16.70;65.90;;;;;;5074682;28;20086;-83
2022/05/28 09:23:15;;;;;;;6.60;1.30;;;16.80;65.70;;;;;;5088647;28;20048;-83
2022/05/28 09:25:45;;;;;;;5.57;1.67;;;16.90;65.40;;;;;;5074786;28;20048;-83
2022/05/28 09:28:38;;;;;;;3.78;1.38;;;16.90;65.20;;;;;;5076504;28;20110;-83
2022/05/28 09:31:23;;;;;;;4.68;1.35;;;16.90;64.90;;;;;;5071795;28;20079;-83
2022/05/28 09:33:53;;;;;;;7.45;1.70;;;17.00;64.80;;;;;;5076571;28;20061;-83
2022/05/28 09:36:41;;;;;;;7.05;1.63;;;17.10;64.60;;;;;;5076199;28;20044;-83
2022/05/28 09:39:21;;;;;;;6.75;1.60;;;17.10;64.40;;;;;;5076931;28;20040;-83
2022/05/28 09:42:03;;;;;;;6.32;1.38;;;17.20;64.30;;;;;;5076457;28;20044;-83
2022/05/28 09:44:50;;;;;;;7.25;1.75;;;17.30;64.10;;;;;;5074998;28;20093;-84
2022/05/28 09:47:17;;;;;;;7.13;1.55;;;17.40;63.90;;;;;;5073185;28;20131;-83
2022/05/28 09:49:53;;;;;;;6.65;1.80;;;17.40;63.60;;;;;;5072575;28;20414;-83
2022/05/28 09:52:25;;;;;;;9.35;1.98;;;17.50;63.30;;;;;;5076414;28;20461;-83
2022/05/28 09:54:52;;;;;;;4.63;1.35;;;17.60;63.00;;;;;;5076260;28;20114;-83
2022/05/28 09:57:26;;;;;;;4.15;1.40;;;17.60;62.80;;;;;;5076577;28;20110;-83
2022/05/28 10:00:00;;;;;;;4.90;1.40;;;17.70;62.50;;;;;;5075456;28;20048;-83
2022/05/28 10:02:32;;;;;;;8.25;1.67;;;17.80;62.30;;;;;;5087891;28;20048;-83
2022/05/28 10:05:20;;;;;;;6.55;1.85;;;17.80;62.10;;;;;;5072330;28;20102;-83
2022/05/28 10:07:49;;;;;;;8.70;1.90;;;17.90;61.90;;;;;;5087963;28;20056;-83
2022/05/28 10:10:30;;;;;;;7.32;1.50;;;17.90;61.70;;;;;;5071800;28;20094;-83
2022/05/28 10:13:17;;;;;;;8.07;1.75;;;17.90;61.50;;;;;;5076195;28;20067;-83
2022/05/28 10:15:56;;;;;;;6.57;1.77;;;17.90;61.50;;;;;;5082483;28;20112;-83
2022/05/28 10:18:35;;;;;;;5.95;1.70;;;17.90;61.40;;;;;;5081551;28;20387;-83
2022/05/28 10:21:18;;;;;;;7.78;1.90;;;18.00;61.30;;;;;;5075823;28;20045;-83
2022/05/28 10:23:54;;;;;;;4.90;1.33;;;18.10;61.10;;;;;;5076338;28;20052;-83
2022/05/28 10:26:30;;;;;;;5.88;1.58;;;18.10;61.00;;;;;;5073622;28;20456;-83
2022/05/28 10:29:27;;;;;;;6.28;1.90;;;18.20;60.80;;;;;;5072999;28;20746;-83
2022/05/28 10:31:57;;;;;;;8.27;1.55;;;18.30;60.50;;;;;;5084793;28;20093;-83
2022/05/28 10:34:38;;;;;;;7.53;1.85;;;18.40;60.30;;;;;;5075701;28;20131;-83
2022/05/28 10:37:14;;;;;;;5.32;1.60;;;18.40;60.10;;;;;;5076908;28;20052;-83
2022/05/28 10:39:43;;;;;;;5.80;1.73;;;18.40;59.90;;;;;;5081916;28;20048;-83
2022/05/28 10:42:12;;;;;;;6.18;1.60;;;18.50;59.60;;;;;;5089290;28;20105;-83
2022/05/28 10:44:41;;;;;;;8.02;1.60;;;18.60;59.40;;;;;;5087410;28;20505;-83
2022/05/28 10:47:27;;;;;;;9.55;1.58;;;18.60;59.20;;;;;;5071793;28;20048;-83
2022/05/28 10:50:03;;;;;;;7.15;1.45;;;18.70;59.10;;;;;;5072404;28;20086;-83
2022/05/28 10:52:56;;;;;;;7.25;1.60;;;18.70;58.90;;;;;;5087249;28;20047;-83
2022/05/28 10:55:43;;;;;;;5.43;1.60;;;18.70;58.80;;;;;;5076120;28;20052;-83
2022/05/28 10:58:34;;;;;;;8.68;1.55;;;18.70;58.80;;;;;;5089600;28;20055;-83
2022/05/28 11:01:04;;;;;;;6.88;1.40;;;18.80;58.70;;;;;;5093118;28;20040;-83
2022/05/28 11:03:40;;;;;;;4.90;1.63;;;18.80;58.60;;;;;;5083276;28;20514;-83
2022/05/28 11:06:16;;;;;;;5.32;1.50;;;18.90;58.50;;;;;;5079339;28;20048;-83
2022/05/28 11:08:49;;;;;;;6.72;1.48;;;18.90;58.40;;;;;;5077354;28;20048;-83
2022/05/28 11:11:23;;;;;;;6.47;1.40;;;18.90;58.30;;;;;;5090747;28;20094;-84
2022/05/28 11:14:45;;;;;;;8.50;1.60;;;19.00;58.20;;;;;;5076609;28;20053;-83
2022/05/28 11:17:34;;;;;;;5.25;1.30;;;19.10;58.10;;;;;;5015371;28;20046;-83
2022/05/28 11:20:11;;;;;;;6.90;1.75;;;19.10;58.00;;;;;;5032457;28;20045;-83
2022/05/28 11:23:11;;;;;;;7.20;1.58;;;19.10;58.00;;;;;;5028117;28;20053;-83
2022/05/28 11:25:47;;;;;;;6.95;1.42;;;19.10;57.90;;;;;;5028284;28;20539;-83
2022/05/28 11:28:33;;;;;;;7.32;1.70;;;19.20;57.80;;;;;;5021378;28;20057;-83
2022/05/28 11:31:19;;;;;;;6.43;1.40;;;19.20;57.80;;;;;;5027851;28;20079;-83
2022/05/28 11:33:48;;;;;;;5.57;1.40;;;19.30;57.80;;;;;;5027742;28;20049;-84
2022/05/28 11:36:17;;;;;;;5.20;1.27;;;19.30;57.80;;;;;;5027980;28;20625;-84
2022/05/28 11:39:05;;;;;;;7.22;1.50;;;19.30;57.70;;;;;;5032903;28;20471;-83
2022/05/28 11:41:40;;;;;;;6.22;1.58;;;19.40;57.50;;;;;;5021490;28;20057;-83
2022/05/28 11:44:33;;;;;;;9.27;1.88;;;19.40;57.50;;;;;;5017907;28;20037;-83
2022/05/28 11:47:09;;;;;;;7.85;1.70;;;19.50;57.40;;;;;;5031548;28;20052;-83
2022/05/28 11:53:12;;;;;;;7.88;1.60;;;19.60;57.10;;;;;;4965092;28;20096;-83
2022/05/28 11:55:42;;;;;;;9.52;1.20;;;19.70;56.90;;;;;;5024326;28;20058;-83
2022/05/28 11:58:17;;;;;;;4.65;1.30;;;19.70;56.70;;;;;;4995428;28;20471;-83
2022/05/28 12:00:52;;;;;;;6.65;1.35;;;19.70;56.60;;;;;;5003297;28;20049;-83
2022/05/28 12:03:25;;;;;;;6.07;1.77;;;19.70;56.50;;;;;;5003366;28;20096;-83
2022/05/28 12:06:04;;;;;;;6.30;1.60;;;19.70;56.50;;;;;;5009299;28;20405;-84
2022/05/28 12:08:40;;;;;;;7.50;1.50;;;19.70;56.50;;;;;;5004781;28;20050;-83
2022/05/28 12:11:29;;;;;;;5.50;1.23;;;19.60;56.50;;;;;;4993011;28;20050;-84
2022/05/28 12:14:28;;;;;;;9.13;1.50;;;19.60;56.50;;;;;;4970982;28;20092;-83
2022/05/28 12:17:09;;;;;;;5.38;1.40;;;19.60;56.40;;;;;;4985927;28;20046;-83
2022/05/28 12:19:44;;;;;;;4.22;1.35;;;19.60;56.30;;;;;;4976546;28;20105;-83
2022/05/28 12:22:41;;;;;;;6.22;1.27;;;19.50;56.30;;;;;;4976490;28;20054;-83
2022/05/28 12:25:17;;;;;;;9.82;1.85;;;19.50;56.30;;;;;;4974281;28;20055;-83
2022/05/28 12:28:09;;;;;;;6.88;1.77;;;19.50;56.50;;;;;;4995314;28;20461;-83
2022/05/28 12:30:37;;;;;;;6.85;1.63;;;19.40;56.60;;;;;;5038616;28;20137;-83
2022/05/28 12:33:04;;;;;;;6.18;1.48;;;19.40;56.60;;;;;;5035639;28;20056;-83
2022/05/28 12:35:31;;;;;;;6.18;1.30;;;19.40;56.70;;;;;;5035960;28;20053;-83
2022/05/28 12:38:10;;;;;;;3.78;1.00;;;19.40;56.70;;;;;;5032243;28;20053;-83
2022/05/28 12:40:46;;;;;;;6.82;1.40;;;19.40;56.70;;;;;;5033973;28;20123;-83
2022/05/28 12:43:15;;;;;;;5.22;1.50;;;19.40;56.70;;;;;;5037323;28;20115;-83
2022/05/28 12:45:47;;;;;;;5.35;1.27;;;19.40;56.70;;;;;;5034714;28;20099;-83
2022/05/28 12:48:32;;;;;;;6.70;1.08;;;19.40;56.70;;;;;;5035131;28;20484;-83
2022/05/28 12:51:03;;;;;;;7.30;1.50;;;19.40;56.60;;;;;;5054387;28;20063;-83
2022/05/28 12:53:59;;;;;;;5.78;1.10;;;19.40;56.60;;;;;;5076010;28;20053;-83
2022/05/28 12:56:34;;;;;;;2.63;1.08;;;19.40;56.50;;;;;;5075419;28;20106;-83
2022/05/28 12:59:13;;;;;;;4.88;1.02;;;19.40;56.50;;;;;;5073085;28;20044;-83
2022/05/28 13:02:00;;;;;;;5.90;1.35;;;19.40;56.40;;;;;;5088410;28;20048;-84
2022/05/28 13:04:32;;;;;;;8.32;1.55;;;19.40;56.20;;;;;;5076957;28;20063;-83
2022/05/28 13:07:01;;;;;;;4.03;1.05;;;19.50;56.10;;;;;;5077054;28;20098;-83
2022/05/28 13:09:31;;;;;;;6.28;1.48;;;19.50;55.90;;;;;;5076846;28;20530;-83
2022/05/28 13:12:18;;;;;;;6.22;1.27;;;19.50;55.60;;;;;;5076518;28;20045;-83
2022/05/28 13:14:57;;;;;;;4.65;1.30;;;19.50;55.50;;;;;;5085211;28;20118;-83